sensor_id;sensor_type;location;lat;lon;timestamp;P1;durP1;ratioP1;P2;durP2;ratioP2
26277;SDS011;14000;52.056;8.510;2023-10-31T00:00:42;8.93;;;4.07;;
26277;SDS011;14000;52.056;8.510;2023-10-31T00:03:07;9.53;;;4.23;;
26277;SDS011;14000;52.056;8.510;2023-10-31T00:05:33;11.53;;;4.87;;
26277;SDS011;14000;52.056;8.510;2023-10-31T00:07:58;10.67;;;4.67;;
26277;SDS011;14000;52.056;8.510;2023-10-31T00:10:24;9.63;;;4.90;;
26277;SDS011;14000;52.056;8.510;2023-10-31T00:12:49;10.97;;;5.50;;
26277;SDS011;14000;52.056;8.510;2023-10-31T00:15:15;10.30;;;5.57;;
26277;SDS011;14000;52.056;8.510;2023-10-31T00:17:40;11.10;;;6.03;;
26277;SDS011;14000;52.056;8.510;2023-10-31T00:20:06;12.67;;;6.50;;
26277;SDS011;14000;52.056;8.510;2023-10-31T00:22:32;12.87;;;6.70;;
26277;SDS011;14000;52.056;8.510;2023-10-31T00:24:58;13.40;;;7.70;;
26277;SDS011;14000;52.056;8.510;2023-10-31T00:27:23;12.73;;;7.20;;
26277;SDS011;14000;52.056;8.510;2023-10-31T00:29:49;12.47;;;6.50;;
26277;SDS011;14000;52.056;8.510;2023-10-31T00:32:14;12.13;;;6.70;;
26277;SDS011;14000;52.056;8.510;2023-10-31T00:34:40;11.33;;;6.67;;
26277;SDS011;14000;52.056;8.510;2023-10-31T00:37:05;12.77;;;7.33;;
26277;SDS011;14000;52.056;8.510;2023-10-31T00:39:31;12.53;;;7.17;;
26277;SDS011;14000;52.056;8.510;2023-10-31T00:41:58;12.07;;;6.50;;
26277;SDS011;14000;52.056;8.510;2023-10-31T00:44:24;15.30;;;8.97;;
26277;SDS011;14000;52.056;8.510;2023-10-31T00:46:49;12.50;;;6.83;;
26277;SDS011;14000;52.056;8.510;2023-10-31T00:49:15;11.67;;;5.97;;
26277;SDS011;14000;52.056;8.510;2023-10-31T00:51:41;9.80;;;5.20;;
26277;SDS011;14000;52.056;8.510;2023-10-31T00:54:06;11.27;;;6.23;;
26277;SDS011;14000;52.056;8.510;2023-10-31T00:56:32;10.70;;;6.07;;
26277;SDS011;14000;52.056;8.510;2023-10-31T00:58:57;12.03;;;6.10;;
26277;SDS011;14000;52.056;8.510;2023-10-31T01:01:23;13.77;;;7.03;;
26277;SDS011;14000;52.056;8.510;2023-10-31T01:03:48;12.50;;;6.53;;
26277;SDS011;14000;52.056;8.510;2023-10-31T01:06:14;14.00;;;8.17;;
26277;SDS011;14000;52.056;8.510;2023-10-31T01:08:40;11.33;;;6.60;;
26277;SDS011;14000;52.056;8.510;2023-10-31T01:11:05;13.47;;;6.50;;
26277;SDS011;14000;52.056;8.510;2023-10-31T01:13:31;12.43;;;6.93;;
26277;SDS011;14000;52.056;8.510;2023-10-31T01:15:56;13.53;;;6.60;;
26277;SDS011;14000;52.056;8.510;2023-10-31T01:18:22;14.00;;;8.17;;
26277;SDS011;14000;52.056;8.510;2023-10-31T01:20:47;13.30;;;8.33;;
26277;SDS011;14000;52.056;8.510;2023-10-31T01:23:13;13.87;;;8.03;;
26277;SDS011;14000;52.056;8.510;2023-10-31T01:25:39;15.00;;;8.33;;
26277;SDS011;14000;52.056;8.510;2023-10-31T01:28:04;13.97;;;8.23;;
26277;SDS011;14000;52.056;8.510;2023-10-31T01:30:30;12.73;;;7.67;;
26277;SDS011;14000;52.056;8.510;2023-10-31T01:32:55;15.83;;;8.60;;
26277;SDS011;14000;52.056;8.510;2023-10-31T01:35:21;14.90;;;8.87;;
26277;SDS011;14000;52.056;8.510;2023-10-31T01:37:47;14.83;;;8.87;;
26277;SDS011;14000;52.056;8.510;2023-10-31T01:40:12;17.00;;;11.17;;
26277;SDS011;14000;52.056;8.510;2023-10-31T01:42:38;20.30;;;13.77;;
26277;SDS011;14000;52.056;8.510;2023-10-31T01:45:04;17.03;;;11.50;;
26277;SDS011;14000;52.056;8.510;2023-10-31T01:47:32;16.93;;;10.60;;
26277;SDS011;14000;52.056;8.510;2023-10-31T01:49:57;16.67;;;10.77;;
26277;SDS011;14000;52.056;8.510;2023-10-31T01:52:24;14.97;;;10.13;;
26277;SDS011;14000;52.056;8.510;2023-10-31T01:54:50;18.07;;;10.57;;
26277;SDS011;14000;52.056;8.510;2023-10-31T01:57:16;16.50;;;10.40;;
26277;SDS011;14000;52.056;8.510;2023-10-31T01:59:45;16.20;;;10.20;;
26277;SDS011;14000;52.056;8.510;2023-10-31T02:02:10;14.37;;;9.73;;
26277;SDS011;14000;52.056;8.510;2023-10-31T02:04:36;15.77;;;9.20;;
26277;SDS011;14000;52.056;8.510;2023-10-31T02:07:01;16.63;;;10.10;;
26277;SDS011;14000;52.056;8.510;2023-10-31T02:09:27;17.00;;;10.23;;
26277;SDS011;14000;52.056;8.510;2023-10-31T02:11:54;17.57;;;10.80;;
26277;SDS011;14000;52.056;8.510;2023-10-31T02:14:21;17.40;;;11.93;;
26277;SDS011;14000;52.056;8.510;2023-10-31T02:16:48;19.50;;;12.83;;
26277;SDS011;14000;52.056;8.510;2023-10-31T02:19:14;19.37;;;13.13;;
26277;SDS011;14000;52.056;8.510;2023-10-31T02:21:43;23.87;;;16.37;;
26277;SDS011;14000;52.056;8.510;2023-10-31T02:24:09;23.00;;;16.40;;
26277;SDS011;14000;52.056;8.510;2023-10-31T02:26:35;23.00;;;15.83;;
26277;SDS011;14000;52.056;8.510;2023-10-31T02:29:01;21.77;;;15.27;;
26277;SDS011;14000;52.056;8.510;2023-10-31T02:31:27;23.10;;;15.23;;
26277;SDS011;14000;52.056;8.510;2023-10-31T02:33:52;20.37;;;11.70;;
26277;SDS011;14000;52.056;8.510;2023-10-31T02:36:18;16.83;;;11.27;;
26277;SDS011;14000;52.056;8.510;2023-10-31T02:38:44;16.00;;;10.33;;
26277;SDS011;14000;52.056;8.510;2023-10-31T02:41:10;14.60;;;8.33;;
26277;SDS011;14000;52.056;8.510;2023-10-31T02:43:37;15.80;;;7.90;;
26277;SDS011;14000;52.056;8.510;2023-10-31T02:46:05;12.70;;;7.63;;
26277;SDS011;14000;52.056;8.510;2023-10-31T02:48:31;12.00;;;6.90;;
26277;SDS011;14000;52.056;8.510;2023-10-31T02:51:03;14.33;;;6.50;;
26277;SDS011;14000;52.056;8.510;2023-10-31T02:53:29;10.70;;;5.90;;
26277;SDS011;14000;52.056;8.510;2023-10-31T02:55:55;10.50;;;5.17;;
26277;SDS011;14000;52.056;8.510;2023-10-31T02:58:20;9.53;;;4.70;;
26277;SDS011;14000;52.056;8.510;2023-10-31T03:00:46;10.13;;;4.63;;
26277;SDS011;14000;52.056;8.510;2023-10-31T03:03:12;9.70;;;4.40;;
26277;SDS011;14000;52.056;8.510;2023-10-31T03:05:37;8.67;;;3.97;;
26277;SDS011;14000;52.056;8.510;2023-10-31T03:08:03;8.60;;;3.40;;
26277;SDS011;14000;52.056;8.510;2023-10-31T03:10:28;7.93;;;2.90;;
26277;SDS011;14000;52.056;8.510;2023-10-31T03:12:54;8.03;;;2.90;;
26277;SDS011;14000;52.056;8.510;2023-10-31T03:15:19;6.93;;;2.50;;
26277;SDS011;14000;52.056;8.510;2023-10-31T03:17:46;5.90;;;2.17;;
26277;SDS011;14000;52.056;8.510;2023-10-31T03:20:11;7.43;;;2.03;;
26277;SDS011;14000;52.056;8.510;2023-10-31T03:22:37;6.17;;;1.93;;
26277;SDS011;14000;52.056;8.510;2023-10-31T03:25:03;6.33;;;1.90;;
26277;SDS011;14000;52.056;8.510;2023-10-31T03:27:29;4.83;;;1.63;;
26277;SDS011;14000;52.056;8.510;2023-10-31T03:29:54;3.37;;;1.03;;
26277;SDS011;14000;52.056;8.510;2023-10-31T03:32:20;4.23;;;1.00;;
26277;SDS011;14000;52.056;8.510;2023-10-31T03:34:45;2.83;;;0.90;;
26277;SDS011;14000;52.056;8.510;2023-10-31T03:37:11;5.00;;;1.13;;
26277;SDS011;14000;52.056;8.510;2023-10-31T03:39:37;3.80;;;1.23;;
26277;SDS011;14000;52.056;8.510;2023-10-31T03:42:02;3.13;;;1.00;;
26277;SDS011;14000;52.056;8.510;2023-10-31T03:44:30;5.30;;;1.07;;
26277;SDS011;14000;52.056;8.510;2023-10-31T03:46:55;5.53;;;1.00;;
26277;SDS011;14000;52.056;8.510;2023-10-31T03:49:21;4.20;;;1.10;;
26277;SDS011;14000;52.056;8.510;2023-10-31T03:51:46;4.37;;;1.20;;
26277;SDS011;14000;52.056;8.510;2023-10-31T03:54:13;3.63;;;1.10;;
26277;SDS011;14000;52.056;8.510;2023-10-31T03:56:39;5.07;;;1.10;;
26277;SDS011;14000;52.056;8.510;2023-10-31T03:59:06;3.97;;;1.20;;
26277;SDS011;14000;52.056;8.510;2023-10-31T04:01:31;5.57;;;1.50;;
26277;SDS011;14000;52.056;8.510;2023-10-31T04:03:57;6.70;;;1.70;;
26277;SDS011;14000;52.056;8.510;2023-10-31T04:06:22;4.63;;;1.40;;
26277;SDS011;14000;52.056;8.510;2023-10-31T04:08:48;5.73;;;1.80;;
26277;SDS011;14000;52.056;8.510;2023-10-31T04:11:13;6.93;;;1.93;;
26277;SDS011;14000;52.056;8.510;2023-10-31T04:13:39;5.83;;;1.70;;
26277;SDS011;14000;52.056;8.510;2023-10-31T04:16:05;6.80;;;1.83;;
26277;SDS011;14000;52.056;8.510;2023-10-31T04:18:30;6.27;;;1.80;;
26277;SDS011;14000;52.056;8.510;2023-10-31T04:20:56;7.57;;;1.87;;
26277;SDS011;14000;52.056;8.510;2023-10-31T04:23:21;6.60;;;1.83;;
26277;SDS011;14000;52.056;8.510;2023-10-31T04:25:47;6.53;;;2.03;;
26277;SDS011;14000;52.056;8.510;2023-10-31T04:28:13;7.60;;;2.00;;
26277;SDS011;14000;52.056;8.510;2023-10-31T04:30:39;9.53;;;2.50;;
26277;SDS011;14000;52.056;8.510;2023-10-31T04:33:05;7.87;;;2.57;;
26277;SDS011;14000;52.056;8.510;2023-10-31T04:35:31;7.90;;;2.60;;
26277;SDS011;14000;52.056;8.510;2023-10-31T04:37:56;8.07;;;2.70;;
26277;SDS011;14000;52.056;8.510;2023-10-31T04:40:22;10.27;;;3.77;;
26277;SDS011;14000;52.056;8.510;2023-10-31T04:42:47;10.57;;;3.70;;
26277;SDS011;14000;52.056;8.510;2023-10-31T04:45:13;9.63;;;4.30;;
26277;SDS011;14000;52.056;8.510;2023-10-31T04:47:40;9.83;;;3.83;;
26277;SDS011;14000;52.056;8.510;2023-10-31T04:50:06;13.53;;;4.27;;
26277;SDS011;14000;52.056;8.510;2023-10-31T04:52:33;12.97;;;5.20;;
26277;SDS011;14000;52.056;8.510;2023-10-31T04:54:58;11.47;;;4.77;;
26277;SDS011;14000;52.056;8.510;2023-10-31T04:57:24;10.03;;;4.90;;
26277;SDS011;14000;52.056;8.510;2023-10-31T04:59:49;13.33;;;5.50;;
26277;SDS011;14000;52.056;8.510;2023-10-31T05:02:15;10.77;;;5.13;;
26277;SDS011;14000;52.056;8.510;2023-10-31T05:04:40;12.97;;;5.70;;
26277;SDS011;14000;52.056;8.510;2023-10-31T05:07:06;13.00;;;6.00;;
26277;SDS011;14000;52.056;8.510;2023-10-31T05:09:32;15.80;;;6.27;;
26277;SDS011;14000;52.056;8.510;2023-10-31T05:11:57;14.80;;;6.60;;
26277;SDS011;14000;52.056;8.510;2023-10-31T05:14:23;16.90;;;7.07;;
26277;SDS011;14000;52.056;8.510;2023-10-31T05:16:48;16.10;;;6.87;;
26277;SDS011;14000;52.056;8.510;2023-10-31T05:19:14;15.57;;;7.50;;
26277;SDS011;14000;52.056;8.510;2023-10-31T05:21:39;14.30;;;7.07;;
26277;SDS011;14000;52.056;8.510;2023-10-31T05:24:05;17.57;;;8.23;;
26277;SDS011;14000;52.056;8.510;2023-10-31T05:26:31;16.03;;;8.83;;
26277;SDS011;14000;52.056;8.510;2023-10-31T05:28:57;17.13;;;9.07;;
26277;SDS011;14000;52.056;8.510;2023-10-31T05:31:23;19.13;;;9.20;;
26277;SDS011;14000;52.056;8.510;2023-10-31T05:33:50;18.33;;;9.53;;
26277;SDS011;14000;52.056;8.510;2023-10-31T05:36:18;22.07;;;9.47;;
26277;SDS011;14000;52.056;8.510;2023-10-31T05:38:47;17.00;;;9.67;;
26277;SDS011;14000;52.056;8.510;2023-10-31T05:41:13;16.60;;;9.23;;
26277;SDS011;14000;52.056;8.510;2023-10-31T05:43:39;17.07;;;9.83;;
26277;SDS011;14000;52.056;8.510;2023-10-31T05:46:05;17.03;;;9.13;;
26277;SDS011;14000;52.056;8.510;2023-10-31T05:48:31;17.00;;;9.00;;
26277;SDS011;14000;52.056;8.510;2023-10-31T05:50:57;19.13;;;10.30;;
26277;SDS011;14000;52.056;8.510;2023-10-31T05:53:23;22.77;;;10.73;;
26277;SDS011;14000;52.056;8.510;2023-10-31T05:55:48;23.93;;;12.37;;
26277;SDS011;14000;52.056;8.510;2023-10-31T05:58:14;24.03;;;11.87;;
26277;SDS011;14000;52.056;8.510;2023-10-31T06:00:39;24.03;;;12.53;;
26277;SDS011;14000;52.056;8.510;2023-10-31T06:03:05;27.73;;;13.43;;
26277;SDS011;14000;52.056;8.510;2023-10-31T06:05:31;30.53;;;14.07;;
26277;SDS011;14000;52.056;8.510;2023-10-31T06:07:56;25.37;;;13.77;;
26277;SDS011;14000;52.056;8.510;2023-10-31T06:10:22;26.10;;;15.67;;
26277;SDS011;14000;52.056;8.510;2023-10-31T06:12:47;37.50;;;17.97;;
26277;SDS011;14000;52.056;8.510;2023-10-31T06:15:13;37.43;;;19.77;;
26277;SDS011;14000;52.056;8.510;2023-10-31T06:17:39;40.70;;;20.83;;
26277;SDS011;14000;52.056;8.510;2023-10-31T06:20:06;35.57;;;19.43;;
26277;SDS011;14000;52.056;8.510;2023-10-31T06:22:33;34.40;;;19.43;;
26277;SDS011;14000;52.056;8.510;2023-10-31T06:24:58;36.87;;;19.93;;
26277;SDS011;14000;52.056;8.510;2023-10-31T06:27:24;40.27;;;20.70;;
26277;SDS011;14000;52.056;8.510;2023-10-31T06:29:50;40.40;;;21.83;;
26277;SDS011;14000;52.056;8.510;2023-10-31T06:32:15;35.17;;;19.67;;
26277;SDS011;14000;52.056;8.510;2023-10-31T06:34:41;38.00;;;20.10;;
26277;SDS011;14000;52.056;8.510;2023-10-31T06:37:06;39.03;;;20.83;;
26277;SDS011;14000;52.056;8.510;2023-10-31T06:39:32;39.97;;;22.07;;
26277;SDS011;14000;52.056;8.510;2023-10-31T06:41:57;40.33;;;20.87;;
26277;SDS011;14000;52.056;8.510;2023-10-31T06:44:23;38.07;;;22.67;;
26277;SDS011;14000;52.056;8.510;2023-10-31T06:46:49;37.63;;;19.80;;
26277;SDS011;14000;52.056;8.510;2023-10-31T06:49:14;31.57;;;17.90;;
26277;SDS011;14000;52.056;8.510;2023-10-31T06:51:40;33.17;;;18.20;;
26277;SDS011;14000;52.056;8.510;2023-10-31T06:54:06;37.03;;;20.23;;
26277;SDS011;14000;52.056;8.510;2023-10-31T06:56:32;36.03;;;18.57;;
26277;SDS011;14000;52.056;8.510;2023-10-31T06:58:57;34.00;;;18.93;;
26277;SDS011;14000;52.056;8.510;2023-10-31T07:01:23;36.60;;;18.70;;
26277;SDS011;14000;52.056;8.510;2023-10-31T07:03:49;37.47;;;19.93;;
26277;SDS011;14000;52.056;8.510;2023-10-31T07:06:15;35.77;;;19.70;;
26277;SDS011;14000;52.056;8.510;2023-10-31T07:08:40;33.97;;;18.57;;
26277;SDS011;14000;52.056;8.510;2023-10-31T07:11:06;30.63;;;15.60;;
26277;SDS011;14000;52.056;8.510;2023-10-31T07:13:31;29.77;;;14.83;;
26277;SDS011;14000;52.056;8.510;2023-10-31T07:15:57;21.40;;;10.13;;
26277;SDS011;14000;52.056;8.510;2023-10-31T07:18:22;19.27;;;9.53;;
26277;SDS011;14000;52.056;8.510;2023-10-31T07:20:48;21.30;;;9.70;;
26277;SDS011;14000;52.056;8.510;2023-10-31T07:23:14;18.73;;;8.40;;
26277;SDS011;14000;52.056;8.510;2023-10-31T07:25:39;17.87;;;8.23;;
26277;SDS011;14000;52.056;8.510;2023-10-31T07:28:06;13.63;;;4.60;;
26277;SDS011;14000;52.056;8.510;2023-10-31T07:30:32;9.77;;;3.63;;
26277;SDS011;14000;52.056;8.510;2023-10-31T07:32:57;11.80;;;3.87;;
26277;SDS011;14000;52.056;8.510;2023-10-31T07:35:23;11.23;;;3.57;;
26277;SDS011;14000;52.056;8.510;2023-10-31T07:37:49;12.90;;;5.13;;
26277;SDS011;14000;52.056;8.510;2023-10-31T07:40:14;13.83;;;5.63;;
26277;SDS011;14000;52.056;8.510;2023-10-31T07:42:40;10.03;;;3.90;;
26277;SDS011;14000;52.056;8.510;2023-10-31T07:45:05;10.50;;;3.53;;
26277;SDS011;14000;52.056;8.510;2023-10-31T07:47:31;11.70;;;4.27;;
26277;SDS011;14000;52.056;8.510;2023-10-31T07:49:57;9.97;;;3.47;;
26277;SDS011;14000;52.056;8.510;2023-10-31T07:52:23;9.13;;;3.40;;
26277;SDS011;14000;52.056;8.510;2023-10-31T07:54:49;9.17;;;3.80;;
26277;SDS011;14000;52.056;8.510;2023-10-31T07:57:14;9.57;;;3.87;;
26277;SDS011;14000;52.056;8.510;2023-10-31T07:59:40;11.10;;;4.40;;
26277;SDS011;14000;52.056;8.510;2023-10-31T08:02:05;10.17;;;3.50;;
26277;SDS011;14000;52.056;8.510;2023-10-31T08:04:31;9.20;;;3.50;;
26277;SDS011;14000;52.056;8.510;2023-10-31T08:06:57;9.00;;;3.53;;
26277;SDS011;14000;52.056;8.510;2023-10-31T08:09:23;8.50;;;3.50;;
26277;SDS011;14000;52.056;8.510;2023-10-31T08:11:48;8.37;;;3.53;;
26277;SDS011;14000;52.056;8.510;2023-10-31T08:14:14;11.23;;;5.27;;
26277;SDS011;14000;52.056;8.510;2023-10-31T08:16:42;7.67;;;3.10;;
26277;SDS011;14000;52.056;8.510;2023-10-31T08:19:08;8.30;;;3.20;;
26277;SDS011;14000;52.056;8.510;2023-10-31T08:21:34;9.30;;;3.73;;
26277;SDS011;14000;52.056;8.510;2023-10-31T08:24:04;12.63;;;5.17;;
26277;SDS011;14000;52.056;8.510;2023-10-31T08:26:33;10.40;;;4.63;;
26277;SDS011;14000;52.056;8.510;2023-10-31T08:28:59;9.37;;;4.27;;
26277;SDS011;14000;52.056;8.510;2023-10-31T08:31:25;9.37;;;4.07;;
26277;SDS011;14000;52.056;8.510;2023-10-31T08:33:50;9.37;;;4.17;;
26277;SDS011;14000;52.056;8.510;2023-10-31T08:36:16;8.67;;;3.70;;
26277;SDS011;14000;52.056;8.510;2023-10-31T08:38:42;8.10;;;3.50;;
26277;SDS011;14000;52.056;8.510;2023-10-31T08:41:07;8.03;;;2.67;;
26277;SDS011;14000;52.056;8.510;2023-10-31T08:43:33;7.67;;;2.80;;
26277;SDS011;14000;52.056;8.510;2023-10-31T08:45:59;8.77;;;2.73;;
26277;SDS011;14000;52.056;8.510;2023-10-31T08:48:25;10.63;;;3.90;;
26277;SDS011;14000;52.056;8.510;2023-10-31T08:50:51;12.63;;;5.23;;
26277;SDS011;14000;52.056;8.510;2023-10-31T08:53:16;8.93;;;3.13;;
26277;SDS011;14000;52.056;8.510;2023-10-31T08:55:44;8.60;;;3.33;;
26277;SDS011;14000;52.056;8.510;2023-10-31T08:58:12;8.40;;;3.00;;
26277;SDS011;14000;52.056;8.510;2023-10-31T09:00:38;12.20;;;4.23;;
26277;SDS011;14000;52.056;8.510;2023-10-31T09:03:05;8.60;;;3.40;;
26277;SDS011;14000;52.056;8.510;2023-10-31T09:05:31;10.53;;;3.60;;
26277;SDS011;14000;52.056;8.510;2023-10-31T09:07:57;9.10;;;4.13;;
26277;SDS011;14000;52.056;8.510;2023-10-31T09:10:22;9.10;;;3.60;;
26277;SDS011;14000;52.056;8.510;2023-10-31T09:12:48;11.87;;;4.17;;
26277;SDS011;14000;52.056;8.510;2023-10-31T09:15:14;12.37;;;4.53;;
26277;SDS011;14000;52.056;8.510;2023-10-31T09:17:39;10.03;;;4.07;;
26277;SDS011;14000;52.056;8.510;2023-10-31T09:20:05;11.17;;;4.70;;
26277;SDS011;14000;52.056;8.510;2023-10-31T09:22:33;11.67;;;5.17;;
26277;SDS011;14000;52.056;8.510;2023-10-31T09:24:58;11.93;;;5.40;;
26277;SDS011;14000;52.056;8.510;2023-10-31T09:27:24;11.07;;;5.57;;
26277;SDS011;14000;52.056;8.510;2023-10-31T09:29:50;11.87;;;5.37;;
26277;SDS011;14000;52.056;8.510;2023-10-31T09:32:16;12.67;;;5.40;;
26277;SDS011;14000;52.056;8.510;2023-10-31T09:34:43;13.00;;;5.30;;
26277;SDS011;14000;52.056;8.510;2023-10-31T09:37:08;14.30;;;5.67;;
26277;SDS011;14000;52.056;8.510;2023-10-31T09:39:34;12.07;;;5.70;;
26277;SDS011;14000;52.056;8.510;2023-10-31T09:41:59;15.73;;;7.27;;
26277;SDS011;14000;52.056;8.510;2023-10-31T09:44:25;13.20;;;5.83;;
26277;SDS011;14000;52.056;8.510;2023-10-31T09:46:51;14.03;;;6.40;;
26277;SDS011;14000;52.056;8.510;2023-10-31T09:49:17;12.80;;;5.83;;
26277;SDS011;14000;52.056;8.510;2023-10-31T09:51:43;13.10;;;5.60;;
26277;SDS011;14000;52.056;8.510;2023-10-31T09:54:11;13.60;;;6.20;;
26277;SDS011;14000;52.056;8.510;2023-10-31T09:56:40;14.20;;;6.53;;
26277;SDS011;14000;52.056;8.510;2023-10-31T09:59:06;13.10;;;6.50;;
26277;SDS011;14000;52.056;8.510;2023-10-31T10:01:32;14.33;;;7.17;;
26277;SDS011;14000;52.056;8.510;2023-10-31T10:03:58;15.13;;;6.87;;
26277;SDS011;14000;52.056;8.510;2023-10-31T10:06:24;15.67;;;7.67;;
26277;SDS011;14000;52.056;8.510;2023-10-31T10:08:50;13.87;;;6.73;;
26277;SDS011;14000;52.056;8.510;2023-10-31T10:11:15;16.37;;;7.13;;
26277;SDS011;14000;52.056;8.510;2023-10-31T10:13:41;21.70;;;8.97;;
26277;SDS011;14000;52.056;8.510;2023-10-31T10:16:07;18.23;;;9.00;;
26277;SDS011;14000;52.056;8.510;2023-10-31T10:18:34;16.63;;;8.70;;
26277;SDS011;14000;52.056;8.510;2023-10-31T10:21:03;20.33;;;10.67;;
26277;SDS011;14000;52.056;8.510;2023-10-31T10:23:30;21.23;;;11.00;;
26277;SDS011;14000;52.056;8.510;2023-10-31T10:25:57;22.37;;;11.30;;
26277;SDS011;14000;52.056;8.510;2023-10-31T10:28:23;29.43;;;14.23;;
26277;SDS011;14000;52.056;8.510;2023-10-31T10:30:50;24.77;;;11.83;;
26277;SDS011;14000;52.056;8.510;2023-10-31T10:33:17;27.90;;;13.90;;
26277;SDS011;14000;52.056;8.510;2023-10-31T10:35:43;30.30;;;14.70;;
26277;SDS011;14000;52.056;8.510;2023-10-31T10:38:10;27.77;;;13.90;;
26277;SDS011;14000;52.056;8.510;2023-10-31T10:40:41;29.23;;;14.43;;
26277;SDS011;14000;52.056;8.510;2023-10-31T10:43:13;31.53;;;14.70;;
26277;SDS011;14000;52.056;8.510;2023-10-31T10:45:46;31.27;;;15.40;;
26277;SDS011;14000;52.056;8.510;2023-10-31T10:48:20;33.07;;;16.77;;
26277;SDS011;14000;52.056;8.510;2023-10-31T10:50:46;37.73;;;17.17;;
26277;SDS011;14000;52.056;8.510;2023-10-31T10:53:20;36.87;;;16.20;;
26277;SDS011;14000;52.056;8.510;2023-10-31T10:55:51;33.83;;;16.00;;
26277;SDS011;14000;52.056;8.510;2023-10-31T11:01:14;35.17;;;17.23;;
26277;SDS011;14000;52.056;8.510;2023-10-31T11:03:43;31.13;;;15.90;;
26277;SDS011;14000;52.056;8.510;2023-10-31T11:06:10;39.87;;;17.40;;
26277;SDS011;14000;52.056;8.510;2023-10-31T11:08:36;33.00;;;16.80;;
26277;SDS011;14000;52.056;8.510;2023-10-31T11:11:02;35.10;;;16.97;;
26277;SDS011;14000;52.056;8.510;2023-10-31T11:13:29;30.40;;;15.80;;
26277;SDS011;14000;52.056;8.510;2023-10-31T11:15:55;31.83;;;17.10;;
26277;SDS011;14000;52.056;8.510;2023-10-31T11:18:25;33.60;;;16.87;;
26277;SDS011;14000;52.056;8.510;2023-10-31T11:20:51;30.13;;;16.13;;
26277;SDS011;14000;52.056;8.510;2023-10-31T11:23:16;31.20;;;17.93;;
26277;SDS011;14000;52.056;8.510;2023-10-31T11:25:43;37.20;;;17.53;;
26277;SDS011;14000;52.056;8.510;2023-10-31T11:28:13;33.10;;;18.33;;
26277;SDS011;14000;52.056;8.510;2023-10-31T11:30:40;29.90;;;16.30;;
26277;SDS011;14000;52.056;8.510;2023-10-31T11:33:11;31.47;;;17.70;;
26277;SDS011;14000;52.056;8.510;2023-10-31T11:35:38;28.33;;;16.33;;
26277;SDS011;14000;52.056;8.510;2023-10-31T11:38:06;26.10;;;15.43;;
26277;SDS011;14000;52.056;8.510;2023-10-31T11:40:33;31.83;;;19.17;;
26277;SDS011;14000;52.056;8.510;2023-10-31T11:43:03;27.70;;;15.60;;
26277;SDS011;14000;52.056;8.510;2023-10-31T11:45:37;25.37;;;14.93;;
26277;SDS011;14000;52.056;8.510;2023-10-31T11:48:10;27.07;;;15.47;;
26277;SDS011;14000;52.056;8.510;2023-10-31T11:50:36;24.83;;;14.73;;
26277;SDS011;14000;52.056;8.510;2023-10-31T11:53:06;24.40;;;14.43;;
26277;SDS011;14000;52.056;8.510;2023-10-31T11:55:36;25.83;;;15.80;;
26277;SDS011;14000;52.056;8.510;2023-10-31T12:00:51;23.80;;;14.90;;
26277;SDS011;14000;52.056;8.510;2023-10-31T12:03:18;23.87;;;14.60;;
26277;SDS011;14000;52.056;8.510;2023-10-31T12:05:55;28.00;;;17.07;;
26277;SDS011;14000;52.056;8.510;2023-10-31T12:08:29;24.73;;;14.90;;
26277;SDS011;14000;52.056;8.510;2023-10-31T12:11:12;27.13;;;16.13;;
26277;SDS011;14000;52.056;8.510;2023-10-31T12:13:39;25.77;;;14.40;;
26277;SDS011;14000;52.056;8.510;2023-10-31T12:16:07;21.10;;;12.67;;
26277;SDS011;14000;52.056;8.510;2023-10-31T12:18:34;22.03;;;13.63;;
26277;SDS011;14000;52.056;8.510;2023-10-31T12:21:01;22.90;;;13.13;;
26277;SDS011;14000;52.056;8.510;2023-10-31T12:23:28;22.77;;;13.10;;
26277;SDS011;14000;52.056;8.510;2023-10-31T12:25:54;22.47;;;13.83;;
26277;SDS011;14000;52.056;8.510;2023-10-31T12:28:23;25.33;;;14.57;;
26277;SDS011;14000;52.056;8.510;2023-10-31T12:30:52;22.63;;;13.97;;
26277;SDS011;14000;52.056;8.510;2023-10-31T12:33:25;22.77;;;14.10;;
26277;SDS011;14000;52.056;8.510;2023-10-31T12:35:58;24.30;;;14.10;;
26277;SDS011;14000;52.056;8.510;2023-10-31T12:38:27;20.43;;;13.73;;
26277;SDS011;14000;52.056;8.510;2023-10-31T12:40:53;24.43;;;13.83;;
26277;SDS011;14000;52.056;8.510;2023-10-31T12:43:21;25.07;;;14.33;;
26277;SDS011;14000;52.056;8.510;2023-10-31T12:45:47;22.20;;;13.80;;
26277;SDS011;14000;52.056;8.510;2023-10-31T12:48:12;24.37;;;14.87;;
26277;SDS011;14000;52.056;8.510;2023-10-31T12:50:38;25.03;;;14.50;;
26277;SDS011;14000;52.056;8.510;2023-10-31T12:53:05;22.67;;;14.17;;
26277;SDS011;14000;52.056;8.510;2023-10-31T12:55:37;25.63;;;14.20;;
26277;SDS011;14000;52.056;8.510;2023-10-31T12:58:04;29.27;;;15.93;;
26277;SDS011;14000;52.056;8.510;2023-10-31T13:00:31;30.57;;;16.03;;
26277;SDS011;14000;52.056;8.510;2023-10-31T13:03:04;25.40;;;15.43;;
26277;SDS011;14000;52.056;8.510;2023-10-31T13:05:31;27.00;;;15.53;;
26277;SDS011;14000;52.056;8.510;2023-10-31T13:07:58;27.33;;;16.33;;
26277;SDS011;14000;52.056;8.510;2023-10-31T13:10:26;27.83;;;15.43;;
26277;SDS011;14000;52.056;8.510;2023-10-31T13:12:52;26.50;;;15.10;;
26277;SDS011;14000;52.056;8.510;2023-10-31T13:15:19;27.77;;;16.17;;
26277;SDS011;14000;52.056;8.510;2023-10-31T13:17:46;27.87;;;16.10;;
26277;SDS011;14000;52.056;8.510;2023-10-31T13:20:12;26.97;;;15.77;;
26277;SDS011;14000;52.056;8.510;2023-10-31T13:22:40;27.23;;;16.77;;
26277;SDS011;14000;52.056;8.510;2023-10-31T13:25:07;27.87;;;16.60;;
26277;SDS011;14000;52.056;8.510;2023-10-31T13:27:42;27.37;;;16.93;;
26277;SDS011;14000;52.056;8.510;2023-10-31T13:30:12;27.77;;;16.90;;
26277;SDS011;14000;52.056;8.510;2023-10-31T13:32:42;29.07;;;17.80;;
26277;SDS011;14000;52.056;8.510;2023-10-31T13:35:07;25.93;;;17.10;;
26277;SDS011;14000;52.056;8.510;2023-10-31T13:37:37;25.87;;;17.27;;
26277;SDS011;14000;52.056;8.510;2023-10-31T13:40:03;27.73;;;17.87;;
26277;SDS011;14000;52.056;8.510;2023-10-31T13:42:29;30.87;;;18.17;;
26277;SDS011;14000;52.056;8.510;2023-10-31T13:44:55;26.90;;;18.00;;
26277;SDS011;14000;52.056;8.510;2023-10-31T13:47:20;27.27;;;17.87;;
26277;SDS011;14000;52.056;8.510;2023-10-31T13:49:46;29.17;;;16.97;;
26277;SDS011;14000;52.056;8.510;2023-10-31T13:52:12;24.90;;;16.07;;
26277;SDS011;14000;52.056;8.510;2023-10-31T13:54:37;28.77;;;17.07;;
26277;SDS011;14000;52.056;8.510;2023-10-31T13:57:03;28.67;;;17.40;;
26277;SDS011;14000;52.056;8.510;2023-10-31T13:59:29;28.67;;;17.07;;
26277;SDS011;14000;52.056;8.510;2023-10-31T14:01:55;28.10;;;17.23;;
26277;SDS011;14000;52.056;8.510;2023-10-31T14:04:20;28.30;;;17.40;;
26277;SDS011;14000;52.056;8.510;2023-10-31T14:06:46;31.87;;;19.40;;
26277;SDS011;14000;52.056;8.510;2023-10-31T14:09:12;32.33;;;18.07;;
26277;SDS011;14000;52.056;8.510;2023-10-31T14:11:39;27.37;;;16.47;;
26277;SDS011;14000;52.056;8.510;2023-10-31T14:14:05;26.70;;;15.93;;
26277;SDS011;14000;52.056;8.510;2023-10-31T14:16:37;26.43;;;14.53;;
26277;SDS011;14000;52.056;8.510;2023-10-31T14:19:08;24.70;;;14.97;;
26277;SDS011;14000;52.056;8.510;2023-10-31T14:21:34;27.97;;;16.30;;
26277;SDS011;14000;52.056;8.510;2023-10-31T14:24:00;28.30;;;17.00;;
26277;SDS011;14000;52.056;8.510;2023-10-31T14:26:26;27.07;;;15.17;;
26277;SDS011;14000;52.056;8.510;2023-10-31T14:28:52;28.20;;;16.33;;
26277;SDS011;14000;52.056;8.510;2023-10-31T14:31:18;30.13;;;17.43;;